Messiah — WCZ4887 — position and weather

sailwx.info

Track history (hours):
 
Tides and Currents Weather Stations Pressure Air Temp Water Temp Dewpoint Dewpoint Depression Visibility Wind Speed Wind Dir Waves Ship Positions

Messiah

Owner: Alaska Boat Company, LLC, SEATTLE, WA. More information available from US FCC via Universal Licensing System and Coast Guard Vessel Documentation Center.

Last reported at 2018-May-31 23:10 UTC. Time now 2018-Jul-19 09:50 UTC.
Position N 49°16' W 126°59'.
Warning: this ship's position is 48 days out of date.

Length 25 m; draft 3.5 m.

Type: Fishing. MMSI: 338688800.

Date/timePositionNaut miles runAvg speedWind from/ knotsBaromVisibWave heightAir tempDewpointWater temp
2018-May-31 23:10N 49°16' W 126°59'1 7.2
2018-May-31 22:59N 49°15' W 126°58'3 7.2
2018-May-31 22:30N 49°13' W 126°53'4 7.6
2018-May-31 22:00N 49°12' W 126°48'4 7.5
2018-May-31 21:26N 49°10' W 126°42'4 7.2
2018-May-31 20:56N 49°08' W 126°37'15 7.3
2018-May-31 18:57N 49°01' W 126°18'4 7.9
2018-May-31 18:30N 48°59' W 126°14'4 7.8
2018-May-31 18:00N 48°56' W 126°09'4 8.0
2018-May-31 17:29N 48°54' W 126°04'4 8.5
2018-May-31 17:00N 48°52' W 125°59'4 8.3
2018-May-31 16:30N 48°49' W 125°54'4 8.1
2018-May-31 16:00N 48°46' W 125°49'4 7.9
2018-May-31 15:30N 48°44' W 125°45'4 8.0
2018-May-31 15:00N 48°41' W 125°40'4 7.9
2018-May-31 14:30N 48°39' W 125°36'4 7.8
2018-May-31 14:00N 48°36' W 125°31'10 7.7
2018-May-31 12:42N 48°31' W 125°17'2 7.6
2018-May-31 12:24N 48°31' W 125°14'3 7.7
2018-May-31 12:00N 48°31' W 125°09'4 7.8
2018-May-31 11:30N 48°31' W 125°04'4 7.6
2018-May-31 10:59N 48°31' W 124°58'4 7.8
2018-May-31 10:30N 48°31' W 124°52'4 7.7
2018-May-31 10:00N 48°31' W 124°46'4 7.9
2018-May-31 09:30N 48°30' W 124°40'4 8.0
2018-May-31 09:00N 48°29' W 124°35'4 8.1
2018-May-31 08:30N 48°27' W 124°29'4 7.9
2018-May-31 08:00N 48°26' W 124°23'4 8.0
2018-May-31 07:30N 48°24' W 124°18'4 8.3
2018-May-31 06:59N 48°23' W 124°12'4 8.8
2018-May-31 06:28N 48°21' W 124°05'5 8.9
2018-May-31 05:56N 48°19' W 123°59'54 6.9
2018-May-30 22:04N 48°07' W 122°39'1 6.0
2018-May-30 21:51N 48°06' W 122°38'3 7.1
2018-May-30 21:22N 48°03' W 122°37'2 6.7
2018-May-30 21:00N 48°00' W 122°36'4 7.7
2018-May-30 20:27N 47°57' W 122°32'4 8.0
2018-May-30 19:59N 47°54' W 122°28'4 8.8
2018-May-30 19:30N 47°50' W 122°27'5 9.2
2018-May-30 19:00N 47°46' W 122°26'4 8.2
2018-May-30 18:30N 47°42' W 122°26'1 2.2
2018-May-30 18:00N 47°41' W 122°25'0 0.0
2018-May-30 17:30N 47°41' W 122°25'0 0.0
2018-May-30 17:00N 47°41' W 122°25'0 0.0
2018-May-30 16:30N 47°41' W 122°25'0 0.0
2018-May-30 16:00N 47°41' W 122°25'0 0.0
2018-May-30 15:30N 47°41' W 122°25'0 0.0
2018-May-30 15:00N 47°41' W 122°25'0 0.0
2018-May-30 14:30N 47°41' W 122°25'0 0.0
2018-May-30 14:00N 47°41' W 122°25'1 1.8
2018-May-30 13:30N 47°40' W 122°24'0 0.6
2018-May-30 13:00N 47°40' W 122°23'0 0.3
2018-May-30 12:30N 47°40' W 122°23'0 0.0
2018-May-30 12:00N 47°40' W 122°23'0 0.0
2018-May-30 11:30N 47°40' W 122°23'0 0.0
2018-May-30 11:00N 47°40' W 122°23'0 0.0
2018-May-30 10:30N 47°40' W 122°23'0 0.0
2018-May-30 10:00N 47°40' W 122°23'0 0.0
2018-May-30 09:30N 47°40' W 122°23'0 0.0
2018-May-30 09:00N 47°40' W 122°23'0 0.0
2018-May-30 08:30N 47°40' W 122°23'0 0.0
2018-May-30 08:00N 47°40' W 122°23'0 0.0
2018-May-30 07:30N 47°40' W 122°23'0 0.0
2018-May-30 07:00N 47°40' W 122°23'0 0.0
2018-May-30 06:30N 47°40' W 122°23'0 0.0
2018-May-30 06:00N 47°40' W 122°23'0 0.0
2018-May-30 05:30N 47°40' W 122°23'0 0.0
2018-May-30 05:00N 47°40' W 122°23'0 0.0
2018-May-30 04:30N 47°40' W 122°23'0 0.0
2018-May-30 04:00N 47°40' W 122°23'0 0.0
2018-May-30 03:30N 47°40' W 122°23'0 0.0
2018-May-30 03:00N 47°40' W 122°23'0 0.0
2018-May-30 02:30N 47°40' W 122°23'0 0.0
2018-May-30 02:00N 47°40' W 122°23'0 0.0
2018-May-30 01:30N 47°40' W 122°23'0 0.0
2018-May-30 01:00N 47°40' W 122°23'0 0.0
2018-May-30 00:30N 47°40' W 122°23'0 0.0
2018-May-30 00:00N 47°40' W 122°23'0 0.0
2018-May-29 23:30N 47°40' W 122°23'0 0.0
2018-May-29 23:00N 47°40' W 122°23'0 0.0
2018-May-29 22:30N 47°40' W 122°23'0 0.0
2018-May-29 22:00N 47°40' W 122°23'0 0.0
2018-May-29 21:30N 47°40' W 122°23'0 0.0
2018-May-29 21:00N 47°40' W 122°23'1 1.7
2018-May-29 20:30N 47°40' W 122°22'2 3.9
2018-May-29 20:00N 47°39' W 122°20'0 0.7
2018-May-29 19:30N 47°39' W 122°20'0 0.0
2018-May-29 18:59N 47°39' W 122°20'0 0.0
2018-May-29 18:30N 47°39' W 122°20'0 0.0
2018-May-29 18:00N 47°39' W 122°20'0 0.0
2018-May-29 17:29N 47°39' W 122°20'0 0.0
2018-May-29 17:00N 47°39' W 122°20'0 0.0
2018-May-29 16:30N 47°39' W 122°20'0 0.0
2018-May-29 16:00N 47°39' W 122°20'0 0.0
2018-May-29 15:30N 47°39' W 122°20'0 0.0
2018-May-29 15:00N 47°39' W 122°20'0 0.0
2018-May-29 14:30N 47°39' W 122°20'0 0.0
2018-May-29 14:00N 47°39' W 122°20'0 0.0
2018-May-29 13:30N 47°39' W 122°20'0 0.0
2018-May-29 13:00N 47°39' W 122°20'0 0.0
2018-May-29 12:30N 47°39' W 122°20'0 0.0
2018-May-29 12:00N 47°39' W 122°20'0 0.0
2018-May-29 11:30N 47°39' W 122°20'0 0.0
2018-May-29 11:00N 47°39' W 122°20'0 0.0
2018-May-29 10:30N 47°39' W 122°20'0 0.0
2018-May-29 09:59N 47°39' W 122°20'0 0.0
2018-May-29 09:30N 47°39' W 122°20'0 0.0
2018-May-29 09:00N 47°39' W 122°20'0 0.0
2018-May-29 08:30N 47°39' W 122°20'0 0.0
2018-May-29 08:00N 47°39' W 122°20'0 0.0
2018-May-29 07:29N 47°39' W 122°20'0 0.0
2018-May-29 07:00N 47°39' W 122°20'0 0.0
2018-May-29 06:27N 47°39' W 122°20'0 0.0
2018-May-29 06:00N 47°39' W 122°20'0 0.0
2018-May-29 05:29N 47°39' W 122°20'0 0.0
2018-May-29 05:00N 47°39' W 122°20'0 0.0
2018-May-29 04:30N 47°39' W 122°20'0 0.0
2018-May-29 04:00N 47°39' W 122°20'0 0.0
2018-May-29 03:30N 47°39' W 122°20'0 0.0
2018-May-29 02:57N 47°39' W 122°20'0 0.0
2018-May-29 02:30N 47°39' W 122°20'0 0.0
2018-May-29 02:00N 47°39' W 122°20'0 0.0
2018-May-29 01:29N 47°39' W 122°20'0 0.0
2018-May-29 01:00N 47°39' W 122°20'0 0.0
2018-May-29 00:30N 47°39' W 122°20'0 0.0
2018-May-29 00:00N 47°39' W 122°20'0 0.0
2018-May-28 23:30N 47°39' W 122°20'0 0.0
2018-May-28 23:00N 47°39' W 122°20'0 0.0
2018-May-28 22:30N 47°39' W 122°20'0 0.0
2018-May-28 22:00N 47°39' W 122°20'0 0.0
2018-May-28 21:30N 47°39' W 122°20'0 0.0
2018-May-28 21:00N 47°39' W 122°20'0 0.0
2018-May-28 20:30N 47°39' W 122°20'0 0.0
2018-May-28 20:00N 47°39' W 122°20'0 0.0
2018-May-28 19:30N 47°39' W 122°20'0 0.0
2018-May-28 19:00N 47°39' W 122°20'0 0.0
2018-May-28 18:30N 47°39' W 122°20'0 0.0
2018-May-28 18:00N 47°39' W 122°20'0 0.0
2018-May-28 17:30N 47°39' W 122°20'0 0.0
2018-May-28 17:00N 47°39' W 122°20'0 0.0
2018-May-28 16:30N 47°39' W 122°20'0 0.0
2018-May-28 16:00N 47°39' W 122°20'0 0.0
2018-May-28 15:30N 47°39' W 122°20'0 0.0
2018-May-28 15:00N 47°39' W 122°20'0 0.0
2018-May-28 14:30N 47°39' W 122°20'0 0.0
2018-May-28 14:00N 47°39' W 122°20'0 0.0
2018-May-28 13:30N 47°39' W 122°20'0 0.0
2018-May-28 13:00N 47°39' W 122°20'0 0.0
2018-May-28 12:30N 47°39' W 122°20'0 0.0
2018-May-28 12:00N 47°39' W 122°20'0 0.0
2018-May-28 11:30N 47°39' W 122°20'0 0.0
2018-May-28 11:00N 47°39' W 122°20'0 0.0
2018-May-28 10:30N 47°39' W 122°20'0 0.0
2018-May-28 10:00N 47°39' W 122°20'0 0.0
2018-May-28 09:30N 47°39' W 122°20'0 0.0
2018-May-28 08:59N 47°39' W 122°20'0 0.0
2018-May-28 08:30N 47°39' W 122°20'0 0.0
2018-May-28 08:00N 47°39' W 122°20'0 0.0
2018-May-28 07:30N 47°39' W 122°20'0 0.0
2018-May-28 06:59N 47°39' W 122°20'0 0.0
2018-May-28 06:30N 47°39' W 122°20'0 0.0
2018-May-28 06:00N 47°39' W 122°20'0 0.0
2018-May-28 05:30N 47°39' W 122°20'0 0.0
2018-May-28 05:00N 47°39' W 122°20'0 0.0
2018-May-28 04:30N 47°39' W 122°20'0 0.0
2018-May-28 04:00N 47°39' W 122°20'0 0.0
2018-May-28 03:30N 47°39' W 122°20'0 0.0
2018-May-28 03:00N 47°39' W 122°20'0 0.0
2018-May-28 02:30N 47°39' W 122°20'0 0.0
2018-May-28 02:00N 47°39' W 122°20'0 0.0
2018-May-28 01:30N 47°39' W 122°20'0 0.0
2018-May-28 01:00N 47°39' W 122°20'0 0.0
2018-May-28 00:29N 47°39' W 122°20'0 0.0
2018-May-28 00:00N 47°39' W 122°20'0 0.0
2018-May-27 23:30N 47°39' W 122°20'0 0.0
2018-May-27 23:00N 47°39' W 122°20'0 0.0
2018-May-27 22:30N 47°39' W 122°20'0 0.0
2018-May-27 22:00N 47°39' W 122°20'0 0.0
2018-May-27 21:30N 47°39' W 122°20'0 0.0
2018-May-27 21:00N 47°39' W 122°20'0 0.0
2018-May-27 20:30N 47°39' W 122°20'0 0.0
2018-May-27 20:00N 47°39' W 122°20'0 0.0
2018-May-27 19:30N 47°39' W 122°20'0 0.0
2018-May-27 19:00N 47°39' W 122°20'0 0.0
2018-May-27 18:30N 47°39' W 122°20'0 0.0
2018-May-27 18:00N 47°39' W 122°20'0 0.0
2018-May-27 17:30N 47°39' W 122°20'0 0.0
2018-May-27 17:00N 47°39' W 122°20'0 0.0
2018-May-27 16:30N 47°39' W 122°20'0 0.0
2018-May-27 16:00N 47°39' W 122°20'0 0.0
2018-May-27 15:30N 47°39' W 122°20'0 0.0
2018-May-27 15:00N 47°39' W 122°20'0 0.0
2018-May-27 14:30N 47°39' W 122°20'0 0.0
2018-May-27 14:00N 47°39' W 122°20'0 0.0
2018-May-27 13:30N 47°39' W 122°20'0 0.0
2018-May-27 13:00N 47°39' W 122°20'0 0.0
2018-May-27 12:29N 47°39' W 122°20'0 0.0
2018-May-27 12:00N 47°39' W 122°20'0 0.0
2018-May-27 11:30N 47°39' W 122°20'0 0.0
2018-May-27 11:00N 47°39' W 122°20'0 0.0
2018-May-27 10:30N 47°39' W 122°20'0 0.0
2018-May-27 10:00N 47°39' W 122°20'0 0.0
2018-May-27 09:30N 47°39' W 122°20'0 0.0
2018-May-27 09:00N 47°39' W 122°20'0 0.0
2018-May-27 08:30N 47°39' W 122°20'0 0.0
2018-May-27 08:00N 47°39' W 122°20'0 0.0
2018-May-27 07:29N 47°39' W 122°20'0 0.0
2018-May-27 07:00N 47°39' W 122°20'0 0.0
2018-May-27 06:30N 47°39' W 122°20'0 0.0
2018-May-27 06:00N 47°39' W 122°20'0 0.0
2018-May-27 05:30N 47°39' W 122°20'0 0.0
2018-May-27 04:59N 47°39' W 122°20'0 0.0
2018-May-27 04:30N 47°39' W 122°20'0 0.0
2018-May-27 04:00N 47°39' W 122°20'0 0.0
2018-May-27 03:30N 47°39' W 122°20'0 0.0
2018-May-27 02:59N 47°39' W 122°20'0 0.0
2018-May-27 02:30N 47°39' W 122°20'0 0.0
2018-May-27 02:00N 47°39' W 122°20'0 0.0
2018-May-27 01:30N 47°39' W 122°20'0 0.0
2018-May-27 01:00N 47°39' W 122°20'0 0.0
2018-May-27 00:30N 47°39' W 122°20'0 0.0
2018-May-27 00:00N 47°39' W 122°20'0 0.0
2018-May-26 23:28N 47°39' W 122°20'0 0.0
2018-May-26 23:00N 47°39' W 122°20'0 0.0
2018-May-26 22:29N 47°39' W 122°20'0 0.0
2018-May-26 22:00N 47°39' W 122°20'0 0.0
2018-May-26 21:30N 47°39' W 122°20'0 0.0
2018-May-26 21:00N 47°39' W 122°20'0 0.0
2018-May-26 20:30N 47°39' W 122°20'0 0.0
2018-May-26 20:00N 47°39' W 122°20'0 0.0
2018-May-26 19:30N 47°39' W 122°20'0 0.0
2018-May-26 18:59N 47°39' W 122°20'0 0.0
2018-May-26 18:30N 47°39' W 122°20'0 0.0
2018-May-26 18:00N 47°39' W 122°20'0 0.0
2018-May-26 17:30N 47°39' W 122°20'0 0.0
2018-May-26 17:00N 47°39' W 122°20'0 0.0
2018-May-26 16:30N 47°39' W 122°20'0 0.0
2018-May-26 16:00N 47°39' W 122°20'0 0.0
2018-May-26 15:30N 47°39' W 122°20'0 0.0
2018-May-26 15:00N 47°39' W 122°20'0 0.0
2018-May-26 14:30N 47°39' W 122°20'0 0.0
2018-May-26 14:00N 47°39' W 122°20'0 0.0
2018-May-26 13:29N 47°39' W 122°20'0 0.0
2018-May-26 13:00N 47°39' W 122°20'0 0.0
2018-May-26 12:30N 47°39' W 122°20'0 0.0
2018-May-26 12:00N 47°39' W 122°20'0 0.0
2018-May-26 11:30N 47°39' W 122°20'0 0.0
2018-May-26 11:00N 47°39' W 122°20'0 0.0
2018-May-26 10:30N 47°39' W 122°20'0 0.0
2018-May-26 10:00N 47°39' W 122°20'0 0.0
2018-May-26 09:28N 47°39' W 122°20'0 0.0
2018-May-26 09:00N 47°39' W 122°20'0 0.0
2018-May-26 08:30N 47°39' W 122°20'0 0.0
2018-May-26 08:00N 47°39' W 122°20'0 0.0
2018-May-26 07:28N 47°39' W 122°20'0 0.0
2018-May-26 07:00N 47°39' W 122°20'0 0.0
2018-May-26 06:30N 47°39' W 122°20'0 0.0
2018-May-26 05:29N 47°39' W 122°20'0 0.0
2018-May-26 05:00N 47°39' W 122°20'0 0.0
2018-May-26 04:30N 47°39' W 122°20'0 0.0
2018-May-26 04:00N 47°39' W 122°20'0 0.0
2018-May-26 03:30N 47°39' W 122°20'0 0.0
2018-May-26 03:00N 47°39' W 122°20'0 0.0
2018-May-26 02:30N 47°39' W 122°20'0 0.0
2018-May-26 02:00N 47°39' W 122°20'0 0.0
2018-May-26 01:30N 47°39' W 122°20'0 0.0
2018-May-26 01:00N 47°39' W 122°20'0 0.0
2018-May-26 00:30N 47°39' W 122°20'0 0.0
2018-May-25 23:59N 47°39' W 122°20'0 0.0
2018-May-25 23:30N 47°39' W 122°20'0 0.0
2018-May-25 23:00N 47°39' W 122°20'0 0.0
2018-May-25 22:30N 47°39' W 122°20'0 0.0
2018-May-25 22:00N 47°39' W 122°20'0 0.0
2018-May-25 21:30N 47°39' W 122°20'0 0.0
2018-May-25 21:00N 47°39' W 122°20'0 0.0
2018-May-25 20:30N 47°39' W 122°20'0 0.0
2018-May-25 20:00N 47°39' W 122°20'0 0.0
2018-May-25 19:30N 47°39' W 122°20'0 0.0
2018-May-25 19:00N 47°39' W 122°20'0 0.0
2018-May-25 18:29N 47°39' W 122°20'0 0.0
2018-May-25 18:00N 47°39' W 122°20'0 0.0
2018-May-25 17:30N 47°39' W 122°20'0 0.0
2018-May-25 17:00N 47°39' W 122°20'0 0.0
2018-May-25 16:30N 47°39' W 122°20'0 0.0
2018-May-25 16:00N 47°39' W 122°20'0 0.0
2018-May-25 15:30N 47°39' W 122°20'0 0.0
2018-May-25 15:00N 47°39' W 122°20'0 0.0
2018-May-25 14:30N 47°39' W 122°20'0 0.0
2018-May-25 14:00N 47°39' W 122°20'0 0.0
2018-May-25 13:30N 47°39' W 122°20'0 0.0
2018-May-25 13:00N 47°39' W 122°20'0 0.0
2018-May-25 12:30N 47°39' W 122°20'0 0.0
2018-May-25 12:00N 47°39' W 122°20'0 0.0
2018-May-25 11:30N 47°39' W 122°20'0 0.0
2018-May-25 11:00N 47°39' W 122°20'0 0.0
2018-May-25 10:30N 47°39' W 122°20'0 0.0
2018-May-25 10:00N 47°39' W 122°20'0 0.0
2018-May-25 09:30N 47°39' W 122°20'0 0.0
2018-May-25 09:00N 47°39' W 122°20'0 0.0
2018-May-25 08:30N 47°39' W 122°20'0 0.0
2018-May-25 08:00N 47°39' W 122°20'0 0.0
2018-May-25 07:29N 47°39' W 122°20'0 0.0
2018-May-25 07:00N 47°39' W 122°20'0 0.0
2018-May-25 06:30N 47°39' W 122°20'0 0.0
2018-May-25 05:59N 47°39' W 122°20'0 0.0
2018-May-25 05:30N 47°39' W 122°20'0 0.0
2018-May-25 04:59N 47°39' W 122°20'0 0.0
2018-May-25 04:30N 47°39' W 122°20'0 0.0
2018-May-25 04:00N 47°39' W 122°20'0 0.0
2018-May-25 03:29N 47°39' W 122°20'0 0.0
2018-May-25 02:59N 47°39' W 122°20'0 0.0
2018-May-25 02:30N 47°39' W 122°20'0 0.0
2018-May-25 02:00N 47°39' W 122°20'0 0.0
2018-May-25 01:30N 47°39' W 122°20'0 0.0
2018-May-25 00:59N 47°39' W 122°20'0 0.0
2018-May-25 00:30N 47°39' W 122°20'0 0.0
2018-May-25 00:00N 47°39' W 122°20'0 0.0
2018-May-24 23:30N 47°39' W 122°20'0 0.0
2018-May-24 23:00N 47°39' W 122°20'0 0.0
2018-May-24 22:30N 47°39' W 122°20'0 0.0
2018-May-24 22:00N 47°39' W 122°20'0 0.0
2018-May-24 21:29N 47°39' W 122°20'0 0.0
2018-May-24 21:00N 47°39' W 122°20'0 0.0
2018-May-24 20:30N 47°39' W 122°20'0 0.0
2018-May-24 20:00N 47°39' W 122°20'0 0.0
2018-May-24 19:30N 47°39' W 122°20'0 0.0
2018-May-24 19:00N 47°39' W 122°20'0 0.0
2018-May-24 18:30N 47°39' W 122°20'0 0.0
2018-May-24 18:00N 47°39' W 122°20'0 0.0
2018-May-24 17:30N 47°39' W 122°20'0 0.0
2018-May-24 17:00N 47°39' W 122°20'0 0.0
2018-May-24 16:30N 47°39' W 122°20'0 0.0
2018-May-24 15:59N 47°39' W 122°20'0 0.0
2018-May-24 15:30N 47°39' W 122°20'0 0.0
2018-May-24 15:00N 47°39' W 122°20'0 0.0
2018-May-24 14:30N 47°39' W 122°20'0 0.0
2018-May-24 14:00N 47°39' W 122°20'0 0.0
2018-May-24 13:30N 47°39' W 122°20'0 0.0
2018-May-24 09:00N 47°39' W 122°20'0 0.0
2018-May-24 08:30N 47°39' W 122°20'0 0.0
2018-May-24 07:59N 47°39' W 122°20'0 0.0
2018-May-24 07:29N 47°39' W 122°20'0 0.0
2018-May-24 06:59N 47°39' W 122°20'0 0.0
2018-May-24 06:30N 47°39' W 122°20'0 0.0
2018-May-24 06:00N 47°39' W 122°20'0 0.0
2018-May-24 05:30N 47°39' W 122°20'0 0.0
2018-May-24 05:00N 47°39' W 122°20'0 0.0
2018-May-24 04:30N 47°39' W 122°20'0 0.0
2018-May-24 04:00N 47°39' W 122°20'0 0.0
2018-May-24 03:30N 47°39' W 122°20'0 0.0
2018-May-24 03:00N 47°39' W 122°20'0 0.0
2018-May-24 02:30N 47°39' W 122°20'0 0.0
2018-May-24 02:00N 47°39' W 122°20'0 0.0
2018-May-24 01:30N 47°39' W 122°20'0 0.0
2018-May-24 01:00N 47°39' W 122°20'0 0.0
2018-May-24 00:29N 47°39' W 122°20'0 0.0
2018-May-24 00:00N 47°39' W 122°20'0 0.0
2018-May-23 23:29N 47°39' W 122°20'0 0.0
2018-May-23 23:00N 47°39' W 122°20'0 0.0
2018-May-23 22:30N 47°39' W 122°20'0 0.0
2018-May-23 22:00N 47°39' W 122°20'0 0.0
2018-May-23 21:30N 47°39' W 122°20'0 0.0
2018-May-23 21:00N 47°39' W 122°20'0 0.0
2018-May-23 20:30N 47°39' W 122°20'0 0.0
2018-May-23 19:59N 47°39' W 122°20'0 0.0
2018-May-23 19:30N 47°39' W 122°20'0 0.0
2018-May-23 19:00N 47°39' W 122°20'0 0.0
2018-May-23 18:30N 47°39' W 122°20'0 0.0
2018-May-23 18:00N 47°39' W 122°20'0 0.0
2018-May-23 17:30N 47°39' W 122°20'0 0.0
2018-May-23 17:00N 47°39' W 122°20'0 0.0
2018-May-23 16:30N 47°39' W 122°20'0 0.0
2018-May-23 15:59N 47°39' W 122°20'0 0.0
2018-May-23 15:29N 47°39' W 122°20'0 0.0
2018-May-23 15:00N 47°39' W 122°20'0 0.0
2018-May-23 14:30N 47°39' W 122°20'0 0.0
2018-May-23 14:00N 47°39' W 122°20'0 0.0
2018-May-23 13:30N 47°39' W 122°20'0 0.0
2018-May-23 13:00N 47°39' W 122°20'0 0.0
2018-May-23 12:30N 47°39' W 122°20'0 0.0
2018-May-23 12:00N 47°39' W 122°20'0 0.0
2018-May-23 11:30N 47°39' W 122°20'0 0.0
2018-May-23 11:00N 47°39' W 122°20'0 0.0
2018-May-23 10:30N 47°39' W 122°20'0 0.0
2018-May-23 10:00N 47°39' W 122°20'0 0.0
2018-May-23 09:28N 47°39' W 122°20'0 0.0
2018-May-23 09:00N 47°39' W 122°20'0 0.0
2018-May-23 08:29N 47°39' W 122°20'0 0.0
2018-May-23 08:00N 47°39' W 122°20'0 0.0
2018-May-23 07:29N 47°39' W 122°20'0 0.0
2018-May-23 07:00N 47°39' W 122°20'0 0.0
2018-May-23 06:29N 47°39' W 122°20'0 0.0
2018-May-23 06:00N 47°39' W 122°20'0 0.0
2018-May-23 05:28N 47°39' W 122°20'0 0.0
2018-May-23 05:00N 47°39' W 122°20'0 0.0
2018-May-23 04:30N 47°39' W 122°20'0 0.0
2018-May-23 04:00N 47°39' W 122°20'0 0.0
2018-May-23 03:30N 47°39' W 122°20'0 0.0
2018-May-23 03:00N 47°39' W 122°20'0 0.0
2018-May-23 02:28N 47°39' W 122°20'0 0.0
2018-May-23 02:00N 47°39' W 122°20'0 0.0
2018-May-23 01:30N 47°39' W 122°20'0 0.0
2018-May-23 01:00N 47°39' W 122°20'0 0.0
2018-May-23 00:30N 47°39' W 122°20'0 0.0
2018-May-23 00:00N 47°39' W 122°20'0 0.0
2018-May-22 23:30N 47°39' W 122°20'0 0.0
2018-May-22 22:56N 47°39' W 122°20'0 0.0
2018-May-22 22:30N 47°39' W 122°20'0 0.0
2018-May-22 22:00N 47°39' W 122°20'0 0.0
2018-May-22 21:30N 47°39' W 122°20'0 0.0
2018-May-22 21:00N 47°39' W 122°20'0 0.0
2018-May-22 20:30N 47°39' W 122°20'0 0.0
2018-May-22 20:00N 47°39' W 122°20'0 0.0
2018-May-22 19:30N 47°39' W 122°20'0 0.0
2018-May-22 19:00N 47°39' W 122°20'0 0.0
2018-May-22 18:30N 47°39' W 122°20'0 0.0
2018-May-22 18:00N 47°39' W 122°20'0 0.0
2018-May-22 17:30N 47°39' W 122°20'0 0.0
2018-May-22 17:00N 47°39' W 122°20'0 0.0
2018-May-22 16:30N 47°39' W 122°20'0 0.0
2018-May-22 16:00N 47°39' W 122°20'0 0.0
2018-May-22 15:30N 47°39' W 122°20'0 0.0
2018-May-22 15:00N 47°39' W 122°20'0 0.0
2018-May-22 14:30N 47°39' W 122°20'0 0.0
2018-May-22 14:00N 47°39' W 122°20'0 0.0
2018-May-22 13:29N 47°39' W 122°20'0 0.0
2018-May-22 12:58N 47°39' W 122°20'0 0.0
2018-May-22 12:30N 47°39' W 122°20'0 0.0
2018-May-22 12:00N 47°39' W 122°20'0 0.0
2018-May-22 11:30N 47°39' W 122°20'0 0.0
2018-May-22 11:00N 47°39' W 122°20'0 0.0
2018-May-22 10:30N 47°39' W 122°20'0 0.0
2018-May-22 10:00N 47°39' W 122°20'0 0.0
2018-May-22 09:29N 47°39' W 122°20'0 0.0
2018-May-22 09:00N 47°39' W 122°20'0 0.0
2018-May-22 08:30N 47°39' W 122°20'0 0.0
2018-May-22 08:00N 47°39' W 122°20'0 0.0
2018-May-22 07:30N 47°39' W 122°20'0 0.0
2018-May-22 07:00N 47°39' W 122°20'0 0.0
2018-May-22 06:30N 47°39' W 122°20'0 0.0
2018-May-22 06:00N 47°39' W 122°20'0 0.0
2018-May-22 05:29N 47°39' W 122°20'0 0.0
2018-May-22 05:00N 47°39' W 122°20'0 0.0
2018-May-22 04:29N 47°39' W 122°20'0 0.0
2018-May-22 04:00N 47°39' W 122°20'0 0.0
2018-May-22 03:30N 47°39' W 122°20'0 0.0
2018-May-22 03:00N 47°39' W 122°20'0 0.0
2018-May-22 02:30N 47°39' W 122°20'0 0.0
2018-May-22 02:00N 47°39' W 122°20'0 0.0
2018-May-22 01:30N 47°39' W 122°20'0 0.0
2018-May-22 01:00N 47°39' W 122°20'0 0.0
2018-May-22 00:30N 47°39' W 122°20'0 0.0
2018-May-22 00:00N 47°39' W 122°20'0 0.0
2018-May-21 23:30N 47°39' W 122°20'  
Track history (hours):
 
Tides and Currents Weather Stations Pressure Air Temp Water Temp Dewpoint Dewpoint Depression Visibility Wind Speed Wind Dir Waves Ship Positions

Messiah

Owner: Alaska Boat Company, LLC, SEATTLE, WA. More information available from US FCC via Universal Licensing System and Coast Guard Vessel Documentation Center.

Last reported at 2018-May-31 23:10 UTC. Time now 2018-Jul-19 09:50 UTC.
Position N 49°16' W 126°59'.
Warning: this ship's position is 48 days out of date.

Length 25 m; draft 3.5 m.

Type: Fishing. MMSI: 338688800.

Date/timePositionNaut miles runAvg speedWind from/ knotsBaromVisibWave heightAir tempDewpointWater temp
2018-May-31 23:10N 49°16' W 126°59'1 7.2
2018-May-31 22:59N 49°15' W 126°58'3 7.2
2018-May-31 22:30N 49°13' W 126°53'4 7.6
2018-May-31 22:00N 49°12' W 126°48'4 7.5
2018-May-31 21:26N 49°10' W 126°42'4 7.2
2018-May-31 20:56N 49°08' W 126°37'15 7.3
2018-May-31 18:57N 49°01' W 126°18'4 7.9
2018-May-31 18:30N 48°59' W 126°14'4 7.8
2018-May-31 18:00N 48°56' W 126°09'4 8.0
2018-May-31 17:29N 48°54' W 126°04'4 8.5
2018-May-31 17:00N 48°52' W 125°59'4 8.3
2018-May-31 16:30N 48°49' W 125°54'4 8.1
2018-May-31 16:00N 48°46' W 125°49'4 7.9
2018-May-31 15:30N 48°44' W 125°45'4 8.0
2018-May-31 15:00N 48°41' W 125°40'4 7.9
2018-May-31 14:30N 48°39' W 125°36'4 7.8
2018-May-31 14:00N 48°36' W 125°31'10 7.7
2018-May-31 12:42N 48°31' W 125°17'2 7.6
2018-May-31 12:24N 48°31' W 125°14'3 7.7
2018-May-31 12:00N 48°31' W 125°09'4 7.8
2018-May-31 11:30N 48°31' W 125°04'4 7.6
2018-May-31 10:59N 48°31' W 124°58'4 7.8
2018-May-31 10:30N 48°31' W 124°52'4 7.7
2018-May-31 10:00N 48°31' W 124°46'4 7.9
2018-May-31 09:30N 48°30' W 124°40'4 8.0
2018-May-31 09:00N 48°29' W 124°35'4 8.1
2018-May-31 08:30N 48°27' W 124°29'4 7.9
2018-May-31 08:00N 48°26' W 124°23'4 8.0
2018-May-31 07:30N 48°24' W 124°18'4 8.3
2018-May-31 06:59N 48°23' W 124°12'4 8.8
2018-May-31 06:28N 48°21' W 124°05'5 8.9
2018-May-31 05:56N 48°19' W 123°59'54 6.9
2018-May-30 22:04N 48°07' W 122°39'1 6.0
2018-May-30 21:51N 48°06' W 122°38'3 7.1
2018-May-30 21:22N 48°03' W 122°37'2 6.7
2018-May-30 21:00N 48°00' W 122°36'4 7.7
2018-May-30 20:27N 47°57' W 122°32'4 8.0
2018-May-30 19:59N 47°54' W 122°28'4 8.8
2018-May-30 19:30N 47°50' W 122°27'5 9.2
2018-May-30 19:00N 47°46' W 122°26'4 8.2
2018-May-30 18:30N 47°42' W 122°26'1 2.2
2018-May-30 18:00N 47°41' W 122°25'0 0.0
2018-May-30 17:30N 47°41' W 122°25'0 0.0
2018-May-30 17:00N 47°41' W 122°25'0 0.0
2018-May-30 16:30N 47°41' W 122°25'0 0.0
2018-May-30 16:00N 47°41' W 122°25'0 0.0
2018-May-30 15:30N 47°41' W 122°25'0 0.0
2018-May-30 15:00N 47°41' W 122°25'0 0.0
2018-May-30 14:30N 47°41' W 122°25'0 0.0
2018-May-30 14:00N 47°41' W 122°25'1 1.8
2018-May-30 13:30N 47°40' W 122°24'0 0.6
2018-May-30 13:00N 47°40' W 122°23'0 0.3
2018-May-30 12:30N 47°40' W 122°23'0 0.0
2018-May-30 12:00N 47°40' W 122°23'0 0.0
2018-May-30 11:30N 47°40' W 122°23'0 0.0
2018-May-30 11:00N 47°40' W 122°23'0 0.0
2018-May-30 10:30N 47°40' W 122°23'0 0.0
2018-May-30 10:00N 47°40' W 122°23'0 0.0
2018-May-30 09:30N 47°40' W 122°23'0 0.0
2018-May-30 09:00N 47°40' W 122°23'0 0.0
2018-May-30 08:30N 47°40' W 122°23'0 0.0
2018-May-30 08:00N 47°40' W 122°23'0 0.0
2018-May-30 07:30N 47°40' W 122°23'0 0.0
2018-May-30 07:00N 47°40' W 122°23'0 0.0
2018-May-30 06:30N 47°40' W 122°23'0 0.0
2018-May-30 06:00N 47°40' W 122°23'0 0.0
2018-May-30 05:30N 47°40' W 122°23'0 0.0
2018-May-30 05:00N 47°40' W 122°23'0 0.0
2018-May-30 04:30N 47°40' W 122°23'0 0.0
2018-May-30 04:00N 47°40' W 122°23'0 0.0
2018-May-30 03:30N 47°40' W 122°23'0 0.0
2018-May-30 03:00N 47°40' W 122°23'0 0.0
2018-May-30 02:30N 47°40' W 122°23'0 0.0
2018-May-30 02:00N 47°40' W 122°23'0 0.0
2018-May-30 01:30N 47°40' W 122°23'0 0.0
2018-May-30 01:00N 47°40' W 122°23'0 0.0
2018-May-30 00:30N 47°40' W 122°23'0 0.0
2018-May-30 00:00N 47°40' W 122°23'0 0.0
2018-May-29 23:30N 47°40' W 122°23'0 0.0
2018-May-29 23:00N 47°40' W 122°23'0 0.0
2018-May-29 22:30N 47°40' W 122°23'0 0.0
2018-May-29 22:00N 47°40' W 122°23'0 0.0
2018-May-29 21:30N 47°40' W 122°23'0 0.0
2018-May-29 21:00N 47°40' W 122°23'1 1.7
2018-May-29 20:30N 47°40' W 122°22'2 3.9
2018-May-29 20:00N 47°39' W 122°20'0 0.7
2018-May-29 19:30N 47°39' W 122°20'0 0.0
2018-May-29 18:59N 47°39' W 122°20'0 0.0
2018-May-29 18:30N 47°39' W 122°20'0 0.0
2018-May-29 18:00N 47°39' W 122°20'0 0.0
2018-May-29 17:29N 47°39' W 122°20'0 0.0
2018-May-29 17:00N 47°39' W 122°20'0 0.0
2018-May-29 16:30N 47°39' W 122°20'0 0.0
2018-May-29 16:00N 47°39' W 122°20'0 0.0
2018-May-29 15:30N 47°39' W 122°20'0 0.0
2018-May-29 15:00N 47°39' W 122°20'0 0.0
2018-May-29 14:30N 47°39' W 122°20'0 0.0
2018-May-29 14:00N 47°39' W 122°20'0 0.0
2018-May-29 13:30N 47°39' W 122°20'0 0.0
2018-May-29 13:00N 47°39' W 122°20'0 0.0
2018-May-29 12:30N 47°39' W 122°20'0 0.0
2018-May-29 12:00N 47°39' W 122°20'0 0.0
2018-May-29 11:30N 47°39' W 122°20'0 0.0
2018-May-29 11:00N 47°39' W 122°20'0 0.0
2018-May-29 10:30N 47°39' W 122°20'0 0.0
2018-May-29 09:59N 47°39' W 122°20'0 0.0
2018-May-29 09:30N 47°39' W 122°20'0 0.0
2018-May-29 09:00N 47°39' W 122°20'0 0.0
2018-May-29 08:30N 47°39' W 122°20'0 0.0
2018-May-29 08:00N 47°39' W 122°20'0 0.0
2018-May-29 07:29N 47°39' W 122°20'0 0.0
2018-May-29 07:00N 47°39' W 122°20'0 0.0
2018-May-29 06:27N 47°39' W 122°20'0 0.0
2018-May-29 06:00N 47°39' W 122°20'0 0.0
2018-May-29 05:29N 47°39' W 122°20'0 0.0
2018-May-29 05:00N 47°39' W 122°20'0 0.0
2018-May-29 04:30N 47°39' W 122°20'0 0.0
2018-May-29 04:00N 47°39' W 122°20'0 0.0
2018-May-29 03:30N 47°39' W 122°20'0 0.0
2018-May-29 02:57N 47°39' W 122°20'0 0.0
2018-May-29 02:30N 47°39' W 122°20'0 0.0
2018-May-29 02:00N 47°39' W 122°20'0 0.0
2018-May-29 01:29N 47°39' W 122°20'0 0.0
2018-May-29 01:00N 47°39' W 122°20'0 0.0
2018-May-29 00:30N 47°39' W 122°20'0 0.0
2018-May-29 00:00N 47°39' W 122°20'0 0.0
2018-May-28 23:30N 47°39' W 122°20'0 0.0
2018-May-28 23:00N 47°39' W 122°20'0 0.0
2018-May-28 22:30N 47°39' W 122°20'0 0.0
2018-May-28 22:00N 47°39' W 122°20'0 0.0
2018-May-28 21:30N 47°39' W 122°20'0 0.0
2018-May-28 21:00N 47°39' W 122°20'0 0.0
2018-May-28 20:30N 47°39' W 122°20'0 0.0
2018-May-28 20:00N 47°39' W 122°20'0 0.0
2018-May-28 19:30N 47°39' W 122°20'0 0.0
2018-May-28 19:00N 47°39' W 122°20'0 0.0
2018-May-28 18:30N 47°39' W 122°20'0 0.0
2018-May-28 18:00N 47°39' W 122°20'0 0.0
2018-May-28 17:30N 47°39' W 122°20'0 0.0
2018-May-28 17:00N 47°39' W 122°20'0 0.0
2018-May-28 16:30N 47°39' W 122°20'0 0.0
2018-May-28 16:00N 47°39' W 122°20'0 0.0
2018-May-28 15:30N 47°39' W 122°20'0 0.0
2018-May-28 15:00N 47°39' W 122°20'0 0.0
2018-May-28 14:30N 47°39' W 122°20'0 0.0
2018-May-28 14:00N 47°39' W 122°20'0 0.0
2018-May-28 13:30N 47°39' W 122°20'0 0.0
2018-May-28 13:00N 47°39' W 122°20'0 0.0
2018-May-28 12:30N 47°39' W 122°20'0 0.0
2018-May-28 12:00N 47°39' W 122°20'0 0.0
2018-May-28 11:30N 47°39' W 122°20'0 0.0
2018-May-28 11:00N 47°39' W 122°20'0 0.0
2018-May-28 10:30N 47°39' W 122°20'0 0.0
2018-May-28 10:00N 47°39' W 122°20'0 0.0
2018-May-28 09:30N 47°39' W 122°20'0 0.0
2018-May-28 08:59N 47°39' W 122°20'0 0.0
2018-May-28 08:30N 47°39' W 122°20'0 0.0
2018-May-28 08:00N 47°39' W 122°20'0 0.0
2018-May-28 07:30N 47°39' W 122°20'0 0.0
2018-May-28 06:59N 47°39' W 122°20'0 0.0
2018-May-28 06:30N 47°39' W 122°20'0 0.0
2018-May-28 06:00N 47°39' W 122°20'0 0.0
2018-May-28 05:30N 47°39' W 122°20'0 0.0
2018-May-28 05:00N 47°39' W 122°20'0 0.0
2018-May-28 04:30N 47°39' W 122°20'0 0.0
2018-May-28 04:00N 47°39' W 122°20'0 0.0
2018-May-28 03:30N 47°39' W 122°20'0 0.0
2018-May-28 03:00N 47°39' W 122°20'0 0.0
2018-May-28 02:30N 47°39' W 122°20'0 0.0
2018-May-28 02:00N 47°39' W 122°20'0 0.0
2018-May-28 01:30N 47°39' W 122°20'0 0.0
2018-May-28 01:00N 47°39' W 122°20'0 0.0
2018-May-28 00:29N 47°39' W 122°20'0 0.0
2018-May-28 00:00N 47°39' W 122°20'0 0.0
2018-May-27 23:30N 47°39' W 122°20'0 0.0
2018-May-27 23:00N 47°39' W 122°20'0 0.0
2018-May-27 22:30N 47°39' W 122°20'0 0.0
2018-May-27 22:00N 47°39' W 122°20'0 0.0
2018-May-27 21:30N 47°39' W 122°20'0 0.0
2018-May-27 21:00N 47°39' W 122°20'0 0.0
2018-May-27 20:30N 47°39' W 122°20'0 0.0
2018-May-27 20:00N 47°39' W 122°20'0 0.0
2018-May-27 19:30N 47°39' W 122°20'0 0.0
2018-May-27 19:00N 47°39' W 122°20'0 0.0
2018-May-27 18:30N 47°39' W 122°20'0 0.0
2018-May-27 18:00N 47°39' W 122°20'0 0.0
2018-May-27 17:30N 47°39' W 122°20'0 0.0
2018-May-27 17:00N 47°39' W 122°20'0 0.0
2018-May-27 16:30N 47°39' W 122°20'0 0.0
2018-May-27 16:00N 47°39' W 122°20'0 0.0
2018-May-27 15:30N 47°39' W 122°20'0 0.0
2018-May-27 15:00N 47°39' W 122°20'0 0.0
2018-May-27 14:30N 47°39' W 122°20'0 0.0
2018-May-27 14:00N 47°39' W 122°20'0 0.0
2018-May-27 13:30N 47°39' W 122°20'0 0.0
2018-May-27 13:00N 47°39' W 122°20'0 0.0
2018-May-27 12:29N 47°39' W 122°20'0 0.0
2018-May-27 12:00N 47°39' W 122°20'0 0.0
2018-May-27 11:30N 47°39' W 122°20'0 0.0
2018-May-27 11:00N 47°39' W 122°20'0 0.0
2018-May-27 10:30N 47°39' W 122°20'0 0.0
2018-May-27 10:00N 47°39' W 122°20'0 0.0
2018-May-27 09:30N 47°39' W 122°20'0 0.0
2018-May-27 09:00N 47°39' W 122°20'0 0.0
2018-May-27 08:30N 47°39' W 122°20'0 0.0
2018-May-27 08:00N 47°39' W 122°20'0 0.0
2018-May-27 07:29N 47°39' W 122°20'0 0.0
2018-May-27 07:00N 47°39' W 122°20'0 0.0
2018-May-27 06:30N 47°39' W 122°20'0 0.0
2018-May-27 06:00N 47°39' W 122°20'0 0.0
2018-May-27 05:30N 47°39' W 122°20'0 0.0
2018-May-27 04:59N 47°39' W 122°20'0 0.0
2018-May-27 04:30N 47°39' W 122°20'0 0.0
2018-May-27 04:00N 47°39' W 122°20'0 0.0
2018-May-27 03:30N 47°39' W 122°20'0 0.0
2018-May-27 02:59N 47°39' W 122°20'0 0.0
2018-May-27 02:30N 47°39' W 122°20'0 0.0
2018-May-27 02:00N 47°39' W 122°20'0 0.0
2018-May-27 01:30N 47°39' W 122°20'0 0.0
2018-May-27 01:00N 47°39' W 122°20'0 0.0
2018-May-27 00:30N 47°39' W 122°20'0 0.0
2018-May-27 00:00N 47°39' W 122°20'0 0.0
2018-May-26 23:28N 47°39' W 122°20'0 0.0
2018-May-26 23:00N 47°39' W 122°20'0 0.0
2018-May-26 22:29N 47°39' W 122°20'0 0.0
2018-May-26 22:00N 47°39' W 122°20'0 0.0
2018-May-26 21:30N 47°39' W 122°20'0 0.0
2018-May-26 21:00N 47°39' W 122°20'0 0.0
2018-May-26 20:30N 47°39' W 122°20'0 0.0
2018-May-26 20:00N 47°39' W 122°20'0 0.0
2018-May-26 19:30N 47°39' W 122°20'0 0.0
2018-May-26 18:59N 47°39' W 122°20'0 0.0
2018-May-26 18:30N 47°39' W 122°20'0 0.0
2018-May-26 18:00N 47°39' W 122°20'0 0.0
2018-May-26 17:30N 47°39' W 122°20'0 0.0
2018-May-26 17:00N 47°39' W 122°20'0 0.0
2018-May-26 16:30N 47°39' W 122°20'0 0.0
2018-May-26 16:00N 47°39' W 122°20'0 0.0
2018-May-26 15:30N 47°39' W 122°20'0 0.0
2018-May-26 15:00N 47°39' W 122°20'0 0.0
2018-May-26 14:30N 47°39' W 122°20'0 0.0
2018-May-26 14:00N 47°39' W 122°20'0 0.0
2018-May-26 13:29N 47°39' W 122°20'0 0.0
2018-May-26 13:00N 47°39' W 122°20'0 0.0
2018-May-26 12:30N 47°39' W 122°20'0 0.0
2018-May-26 12:00N 47°39' W 122°20'0 0.0
2018-May-26 11:30N 47°39' W 122°20'0 0.0
2018-May-26 11:00N 47°39' W 122°20'0 0.0
2018-May-26 10:30N 47°39' W 122°20'0 0.0
2018-May-26 10:00N 47°39' W 122°20'0 0.0
2018-May-26 09:28N 47°39' W 122°20'0 0.0
2018-May-26 09:00N 47°39' W 122°20'0 0.0
2018-May-26 08:30N 47°39' W 122°20'0 0.0
2018-May-26 08:00N 47°39' W 122°20'0 0.0
2018-May-26 07:28N 47°39' W 122°20'0 0.0
2018-May-26 07:00N 47°39' W 122°20'0 0.0
2018-May-26 06:30N 47°39' W 122°20'0 0.0
2018-May-26 05:29N 47°39' W 122°20'0 0.0
2018-May-26 05:00N 47°39' W 122°20'0 0.0
2018-May-26 04:30N 47°39' W 122°20'0 0.0
2018-May-26 04:00N 47°39' W 122°20'0 0.0
2018-May-26 03:30N 47°39' W 122°20'0 0.0
2018-May-26 03:00N 47°39' W 122°20'0 0.0
2018-May-26 02:30N 47°39' W 122°20'0 0.0
2018-May-26 02:00N 47°39' W 122°20'0 0.0
2018-May-26 01:30N 47°39' W 122°20'0 0.0
2018-May-26 01:00N 47°39' W 122°20'0 0.0
2018-May-26 00:30N 47°39' W 122°20'0 0.0
2018-May-25 23:59N 47°39' W 122°20'0 0.0
2018-May-25 23:30N 47°39' W 122°20'0 0.0
2018-May-25 23:00N 47°39' W 122°20'0 0.0
2018-May-25 22:30N 47°39' W 122°20'0 0.0
2018-May-25 22:00N 47°39' W 122°20'0 0.0
2018-May-25 21:30N 47°39' W 122°20'0 0.0
2018-May-25 21:00N 47°39' W 122°20'0 0.0
2018-May-25 20:30N 47°39' W 122°20'0 0.0
2018-May-25 20:00N 47°39' W 122°20'0 0.0
2018-May-25 19:30N 47°39' W 122°20'0 0.0
2018-May-25 19:00N 47°39' W 122°20'0 0.0
2018-May-25 18:29N 47°39' W 122°20'0 0.0
2018-May-25 18:00N 47°39' W 122°20'0 0.0
2018-May-25 17:30N 47°39' W 122°20'0 0.0
2018-May-25 17:00N 47°39' W 122°20'0 0.0
2018-May-25 16:30N 47°39' W 122°20'0 0.0
2018-May-25 16:00N 47°39' W 122°20'0 0.0
2018-May-25 15:30N 47°39' W 122°20'0 0.0
2018-May-25 15:00N 47°39' W 122°20'0 0.0
2018-May-25 14:30N 47°39' W 122°20'0 0.0
2018-May-25 14:00N 47°39' W 122°20'0 0.0
2018-May-25 13:30N 47°39' W 122°20'0 0.0
2018-May-25 13:00N 47°39' W 122°20'0 0.0
2018-May-25 12:30N 47°39' W 122°20'0 0.0
2018-May-25 12:00N 47°39' W 122°20'0 0.0
2018-May-25 11:30N 47°39' W 122°20'0 0.0
2018-May-25 11:00N 47°39' W 122°20'0 0.0
2018-May-25 10:30N 47°39' W 122°20'0 0.0
2018-May-25 10:00N 47°39' W 122°20'0 0.0
2018-May-25 09:30N 47°39' W 122°20'0 0.0
2018-May-25 09:00N 47°39' W 122°20'0 0.0
2018-May-25 08:30N 47°39' W 122°20'0 0.0
2018-May-25 08:00N 47°39' W 122°20'0 0.0
2018-May-25 07:29N 47°39' W 122°20'0 0.0
2018-May-25 07:00N 47°39' W 122°20'0 0.0
2018-May-25 06:30N 47°39' W 122°20'0 0.0
2018-May-25 05:59N 47°39' W 122°20'0 0.0
2018-May-25 05:30N 47°39' W 122°20'0 0.0
2018-May-25 04:59N 47°39' W 122°20'0 0.0
2018-May-25 04:30N 47°39' W 122°20'0 0.0
2018-May-25 04:00N 47°39' W 122°20'0 0.0
2018-May-25 03:29N 47°39' W 122°20'0 0.0
2018-May-25 02:59N 47°39' W 122°20'0 0.0
2018-May-25 02:30N 47°39' W 122°20'0 0.0
2018-May-25 02:00N 47°39' W 122°20'0 0.0
2018-May-25 01:30N 47°39' W 122°20'0 0.0
2018-May-25 00:59N 47°39' W 122°20'0 0.0
2018-May-25 00:30N 47°39' W 122°20'0 0.0
2018-May-25 00:00N 47°39' W 122°20'0 0.0
2018-May-24 23:30N 47°39' W 122°20'0 0.0
2018-May-24 23:00N 47°39' W 122°20'0 0.0
2018-May-24 22:30N 47°39' W 122°20'0 0.0
2018-May-24 22:00N 47°39' W 122°20'0 0.0
2018-May-24 21:29N 47°39' W 122°20'0 0.0
2018-May-24 21:00N 47°39' W 122°20'0 0.0
2018-May-24 20:30N 47°39' W 122°20'0 0.0
2018-May-24 20:00N 47°39' W 122°20'0 0.0
2018-May-24 19:30N 47°39' W 122°20'0 0.0
2018-May-24 19:00N 47°39' W 122°20'0 0.0
2018-May-24 18:30N 47°39' W 122°20'0 0.0
2018-May-24 18:00N 47°39' W 122°20'0 0.0
2018-May-24 17:30N 47°39' W 122°20'0 0.0
2018-May-24 17:00N 47°39' W 122°20'0 0.0
2018-May-24 16:30N 47°39' W 122°20'0 0.0
2018-May-24 15:59N 47°39' W 122°20'0 0.0
2018-May-24 15:30N 47°39' W 122°20'0 0.0
2018-May-24 15:00N 47°39' W 122°20'0 0.0
2018-May-24 14:30N 47°39' W 122°20'0 0.0
2018-May-24 14:00N 47°39' W 122°20'0 0.0
2018-May-24 13:30N 47°39' W 122°20'0 0.0
2018-May-24 09:00N 47°39' W 122°20'0 0.0
2018-May-24 08:30N 47°39' W 122°20'0 0.0
2018-May-24 07:59N 47°39' W 122°20'0 0.0
2018-May-24 07:29N 47°39' W 122°20'0 0.0
2018-May-24 06:59N 47°39' W 122°20'0 0.0
2018-May-24 06:30N 47°39' W 122°20'0 0.0
2018-May-24 06:00N 47°39' W 122°20'0 0.0
2018-May-24 05:30N 47°39' W 122°20'0 0.0
2018-May-24 05:00N 47°39' W 122°20'0 0.0
2018-May-24 04:30N 47°39' W 122°20'0 0.0
2018-May-24 04:00N 47°39' W 122°20'0 0.0
2018-May-24 03:30N 47°39' W 122°20'0 0.0
2018-May-24 03:00N 47°39' W 122°20'0 0.0
2018-May-24 02:30N 47°39' W 122°20'0 0.0
2018-May-24 02:00N 47°39' W 122°20'0 0.0
2018-May-24 01:30N 47°39' W 122°20'0 0.0
2018-May-24 01:00N 47°39' W 122°20'0 0.0
2018-May-24 00:29N 47°39' W 122°20'0 0.0
2018-May-24 00:00N 47°39' W 122°20'0 0.0
2018-May-23 23:29N 47°39' W 122°20'0 0.0
2018-May-23 23:00N 47°39' W 122°20'0 0.0
2018-May-23 22:30N 47°39' W 122°20'0 0.0
2018-May-23 22:00N 47°39' W 122°20'0 0.0
2018-May-23 21:30N 47°39' W 122°20'0 0.0
2018-May-23 21:00N 47°39' W 122°20'0 0.0
2018-May-23 20:30N 47°39' W 122°20'0 0.0
2018-May-23 19:59N 47°39' W 122°20'0 0.0
2018-May-23 19:30N 47°39' W 122°20'0 0.0
2018-May-23 19:00N 47°39' W 122°20'0 0.0
2018-May-23 18:30N 47°39' W 122°20'0 0.0
2018-May-23 18:00N 47°39' W 122°20'0 0.0
2018-May-23 17:30N 47°39' W 122°20'0 0.0
2018-May-23 17:00N 47°39' W 122°20'0 0.0
2018-May-23 16:30N 47°39' W 122°20'0 0.0
2018-May-23 15:59N 47°39' W 122°20'0 0.0
2018-May-23 15:29N 47°39' W 122°20'0 0.0
2018-May-23 15:00N 47°39' W 122°20'0 0.0
2018-May-23 14:30N 47°39' W 122°20'0 0.0
2018-May-23 14:00N 47°39' W 122°20'0 0.0
2018-May-23 13:30N 47°39' W 122°20'0 0.0
2018-May-23 13:00N 47°39' W 122°20'0 0.0
2018-May-23 12:30N 47°39' W 122°20'0 0.0
2018-May-23 12:00N 47°39' W 122°20'0 0.0
2018-May-23 11:30N 47°39' W 122°20'0 0.0
2018-May-23 11:00N 47°39' W 122°20'0 0.0
2018-May-23 10:30N 47°39' W 122°20'0 0.0
2018-May-23 10:00N 47°39' W 122°20'0 0.0
2018-May-23 09:28N 47°39' W 122°20'0 0.0
2018-May-23 09:00N 47°39' W 122°20'0 0.0
2018-May-23 08:29N 47°39' W 122°20'0 0.0
2018-May-23 08:00N 47°39' W 122°20'0 0.0
2018-May-23 07:29N 47°39' W 122°20'0 0.0
2018-May-23 07:00N 47°39' W 122°20'0 0.0
2018-May-23 06:29N 47°39' W 122°20'0 0.0
2018-May-23 06:00N 47°39' W 122°20'0 0.0
2018-May-23 05:28N 47°39' W 122°20'0 0.0
2018-May-23 05:00N 47°39' W 122°20'0 0.0
2018-May-23 04:30N 47°39' W 122°20'0 0.0
2018-May-23 04:00N 47°39' W 122°20'0 0.0
2018-May-23 03:30N 47°39' W 122°20'0 0.0
2018-May-23 03:00N 47°39' W 122°20'0 0.0
2018-May-23 02:28N 47°39' W 122°20'0 0.0
2018-May-23 02:00N 47°39' W 122°20'0 0.0
2018-May-23 01:30N 47°39' W 122°20'0 0.0
2018-May-23 01:00N 47°39' W 122°20'0 0.0
2018-May-23 00:30N 47°39' W 122°20'0 0.0
2018-May-23 00:00N 47°39' W 122°20'0 0.0
2018-May-22 23:30N 47°39' W 122°20'0 0.0
2018-May-22 22:56N 47°39' W 122°20'0 0.0
2018-May-22 22:30N 47°39' W 122°20'0 0.0
2018-May-22 22:00N 47°39' W 122°20'0 0.0
2018-May-22 21:30N 47°39' W 122°20'0 0.0
2018-May-22 21:00N 47°39' W 122°20'0 0.0
2018-May-22 20:30N 47°39' W 122°20'0 0.0
2018-May-22 20:00N 47°39' W 122°20'0 0.0
2018-May-22 19:30N 47°39' W 122°20'0 0.0
2018-May-22 19:00N 47°39' W 122°20'0 0.0
2018-May-22 18:30N 47°39' W 122°20'0 0.0
2018-May-22 18:00N 47°39' W 122°20'0 0.0
2018-May-22 17:30N 47°39' W 122°20'0 0.0
2018-May-22 17:00N 47°39' W 122°20'0 0.0
2018-May-22 16:30N 47°39' W 122°20'0 0.0
2018-May-22 16:00N 47°39' W 122°20'0 0.0
2018-May-22 15:30N 47°39' W 122°20'0 0.0
2018-May-22 15:00N 47°39' W 122°20'0 0.0
2018-May-22 14:30N 47°39' W 122°20'0 0.0
2018-May-22 14:00N 47°39' W 122°20'0 0.0
2018-May-22 13:29N 47°39' W 122°20'0 0.0
2018-May-22 12:58N 47°39' W 122°20'0 0.0
2018-May-22 12:30N 47°39' W 122°20'0 0.0
2018-May-22 12:00N 47°39' W 122°20'0 0.0
2018-May-22 11:30N 47°39' W 122°20'0 0.0
2018-May-22 11:00N 47°39' W 122°20'0 0.0
2018-May-22 10:30N 47°39' W 122°20'0 0.0
2018-May-22 10:00N 47°39' W 122°20'0 0.0
2018-May-22 09:29N 47°39' W 122°20'0 0.0
2018-May-22 09:00N 47°39' W 122°20'0 0.0
2018-May-22 08:30N 47°39' W 122°20'0 0.0
2018-May-22 08:00N 47°39' W 122°20'0 0.0
2018-May-22 07:30N 47°39' W 122°20'0 0.0
2018-May-22 07:00N 47°39' W 122°20'0 0.0
2018-May-22 06:30N 47°39' W 122°20'0 0.0
2018-May-22 06:00N 47°39' W 122°20'0 0.0
2018-May-22 05:29N 47°39' W 122°20'0 0.0
2018-May-22 05:00N 47°39' W 122°20'0 0.0
2018-May-22 04:29N 47°39' W 122°20'0 0.0
2018-May-22 04:00N 47°39' W 122°20'0 0.0
2018-May-22 03:30N 47°39' W 122°20'0 0.0
2018-May-22 03:00N 47°39' W 122°20'0 0.0
2018-May-22 02:30N 47°39' W 122°20'0 0.0
2018-May-22 02:00N 47°39' W 122°20'0 0.0
2018-May-22 01:30N 47°39' W 122°20'0 0.0
2018-May-22 01:00N 47°39' W 122°20'0 0.0
2018-May-22 00:30N 47°39' W 122°20'0 0.0
2018-May-22 00:00N 47°39' W 122°20'0 0.0
2018-May-21 23:30N 47°39' W 122°20'  

Dump ship's entire track history